createdAt,value
2016-10-19T00:00:47.444Z,0
2016-10-19T00:01:47.490Z,0
2016-10-19T00:02:47.494Z,0
2016-10-19T00:03:47.513Z,0
2016-10-19T00:04:47.520Z,0
2016-10-19T00:05:47.553Z,0
2016-10-19T00:06:47.553Z,0
2016-10-19T00:07:47.912Z,0
2016-10-19T00:08:47.606Z,0
2016-10-19T00:09:47.626Z,0
2016-10-19T00:10:47.633Z,0
2016-10-19T00:11:47.667Z,0
2016-10-19T00:12:47.684Z,0
2016-10-19T00:13:47.691Z,0
2016-10-19T00:14:47.731Z,0
2016-10-19T00:15:47.720Z,0
2016-10-19T00:16:47.757Z,0
2016-10-19T00:17:47.784Z,0
2016-10-19T00:18:47.787Z,0
2016-10-19T00:19:47.810Z,0
2016-10-19T00:20:47.823Z,0
2016-10-19T00:21:47.848Z,0
2016-10-19T00:22:47.861Z,0
2016-10-19T00:23:47.873Z,0
2016-10-19T00:24:47.905Z,0
2016-10-19T00:25:47.921Z,0
2016-10-19T00:26:47.951Z,0
2016-10-19T00:27:47.950Z,0
2016-10-19T00:28:47.983Z,0
2016-10-19T00:29:47.982Z,0
2016-10-19T00:30:48.023Z,0
2016-10-19T00:31:48.035Z,0
2016-10-19T00:32:48.052Z,0
2016-10-19T00:33:48.069Z,0
2016-10-19T00:34:48.095Z,0
2016-10-19T00:35:48.114Z,0
2016-10-19T00:36:48.158Z,0
2016-10-19T00:37:48.151Z,0
2016-10-19T00:38:48.155Z,0
2016-10-19T00:39:48.171Z,0
2016-10-19T00:40:48.192Z,0
2016-10-19T00:41:48.211Z,0
2016-10-19T00:42:48.297Z,0
2016-10-19T00:43:48.267Z,0
2016-10-19T00:44:48.276Z,0
2016-10-19T00:45:48.286Z,0
2016-10-19T00:46:48.321Z,0
2016-10-19T00:47:48.333Z,0
2016-10-19T00:48:48.351Z,0
2016-10-19T00:49:48.361Z,0
2016-10-19T00:50:48.390Z,0
2016-10-19T00:51:48.399Z,0
2016-10-19T00:52:48.457Z,0
2016-10-19T00:53:48.437Z,0
2016-10-19T00:54:48.466Z,0
2016-10-19T00:55:48.490Z,0
2016-10-19T00:56:48.512Z,0
2016-10-19T00:57:48.571Z,0
2016-10-19T00:58:51.599Z,0
2016-10-19T00:59:48.556Z,0
2016-10-19T01:00:48.566Z,0
2016-10-19T01:01:48.583Z,0
2016-10-19T01:02:48.605Z,0
2016-10-19T01:03:48.622Z,0
2016-10-19T01:04:48.643Z,0
2016-10-19T01:05:48.656Z,0
2016-10-19T01:06:48.685Z,0
2016-10-19T01:07:48.703Z,0
2016-10-19T01:08:48.715Z,0
2016-10-19T01:09:48.765Z,0
2016-10-19T01:10:48.756Z,0
2016-10-19T01:11:48.767Z,0
2016-10-19T01:12:49.214Z,0
2016-10-19T01:13:48.813Z,0
2016-10-19T01:14:48.827Z,0
2016-10-19T01:15:48.845Z,0
2016-10-19T01:16:48.868Z,0
2016-10-19T01:17:48.887Z,0
2016-10-19T01:18:48.904Z,0
2016-10-19T01:19:48.918Z,0
2016-10-19T01:20:48.938Z,0
2016-10-19T01:21:48.957Z,0
2016-10-19T01:22:49.341Z,0
2016-10-19T01:23:48.994Z,0
2016-10-19T01:24:49.163Z,0
2016-10-19T01:25:49.037Z,0
2016-10-19T01:26:49.053Z,0
2016-10-19T01:27:49.190Z,0
2016-10-19T01:28:49.225Z,0
2016-10-19T01:29:49.197Z,0
2016-10-19T01:30:49.231Z,0
2016-10-19T01:31:49.241Z,0
2016-10-19T01:32:49.250Z,0
2016-10-19T01:33:49.265Z,0
2016-10-19T01:34:49.292Z,0
2016-10-19T01:35:49.328Z,0
2016-10-19T01:36:49.335Z,0
2016-10-19T01:37:49.344Z,0
2016-10-19T01:38:49.354Z,0
2016-10-19T01:39:49.351Z,0
2016-10-19T01:40:49.360Z,0
2016-10-19T01:41:49.369Z,0
2016-10-19T01:42:49.379Z,0
2016-10-19T01:43:49.386Z,0
2016-10-19T01:44:49.499Z,0
2016-10-19T01:45:49.497Z,0
2016-10-19T01:46:49.444Z,0
2016-10-19T01:47:49.757Z,0
2016-10-19T01:48:49.779Z,0
2016-10-19T01:49:49.482Z,0
2016-10-19T01:50:49.503Z,0
2016-10-19T01:51:49.528Z,0
2016-10-19T01:52:49.538Z,0
2016-10-19T01:53:49.559Z,0
2016-10-19T01:54:49.576Z,0
2016-10-19T01:55:49.630Z,0
2016-10-19T01:56:49.644Z,0
2016-10-19T01:57:49.631Z,0
2016-10-19T01:58:49.648Z,0
2016-10-19T01:59:49.987Z,0
2016-10-19T02:00:49.682Z,0
2016-10-19T02:01:49.705Z,0
2016-10-19T02:02:49.760Z,0
2016-10-19T02:03:49.739Z,0
2016-10-19T02:04:49.761Z,0
2016-10-19T02:05:49.778Z,0
2016-10-19T02:06:49.843Z,0
2016-10-19T02:07:49.815Z,0
2016-10-19T02:08:49.833Z,0
2016-10-19T02:09:49.859Z,0
2016-10-19T02:10:49.871Z,0
2016-10-19T02:11:49.887Z,0
2016-10-19T02:12:49.959Z,0
2016-10-19T02:13:49.924Z,0
2016-10-19T02:14:49.944Z,0
2016-10-19T02:15:49.958Z,0
2016-10-19T02:16:49.982Z,0
2016-10-19T02:17:50.002Z,0
2016-10-19T02:18:50.018Z,0
2016-10-19T02:19:50.035Z,0
2016-10-19T02:20:50.057Z,0
2016-10-19T02:21:50.074Z,0
2016-10-19T02:22:50.094Z,0
2016-10-19T02:23:50.124Z,0
2016-10-19T02:24:50.138Z,0
2016-10-19T02:25:50.148Z,0
2016-10-19T02:26:50.164Z,0
2016-10-19T02:27:50.188Z,0
2016-10-19T02:28:50.212Z,0
2016-10-19T02:29:50.233Z,0
2016-10-19T02:30:50.244Z,0
2016-10-19T02:31:50.262Z,0
2016-10-19T02:32:50.281Z,0
2016-10-19T02:33:50.294Z,0
2016-10-19T02:34:50.328Z,0
2016-10-19T02:35:50.343Z,0
2016-10-19T02:36:50.392Z,0
2016-10-19T02:37:50.370Z,0
2016-10-19T02:38:50.422Z,0
2016-10-19T02:39:50.411Z,0
2016-10-19T02:40:50.433Z,0
2016-10-19T02:41:50.448Z,0
2016-10-19T02:42:50.464Z,0
2016-10-19T02:43:50.514Z,0
2016-10-19T02:44:50.539Z,0
2016-10-19T02:45:50.522Z,0
2016-10-19T02:46:50.541Z,0
2016-10-19T02:47:50.556Z,0
2016-10-19T02:48:50.583Z,0
2016-10-19T02:49:50.598Z,0
2016-10-19T02:50:50.616Z,0
2016-10-19T02:51:50.677Z,0
2016-10-19T02:52:50.660Z,0
2016-10-19T02:53:50.668Z,0
2016-10-19T02:54:50.689Z,0
2016-10-19T02:55:50.711Z,0
2016-10-19T02:56:50.728Z,0
2016-10-19T02:57:50.745Z,0
2016-10-19T02:58:50.764Z,0
2016-10-19T02:59:50.780Z,0
2016-10-19T03:00:50.800Z,0
2016-10-19T03:01:50.827Z,0
2016-10-19T03:02:50.847Z,0
2016-10-19T03:03:51.288Z,0
2016-10-19T03:04:50.879Z,0
2016-10-19T03:05:50.893Z,0
2016-10-19T03:06:50.959Z,0
2016-10-19T03:07:50.927Z,0
2016-10-19T03:08:50.951Z,0
2016-10-19T03:09:50.976Z,0
2016-10-19T03:10:51.074Z,0
2016-10-19T03:11:51.013Z,0
2016-10-19T03:12:51.064Z,0
2016-10-19T03:13:51.039Z,0
2016-10-19T03:14:51.177Z,0
2016-10-19T03:15:51.080Z,0
2016-10-19T03:16:51.098Z,0
2016-10-19T03:17:51.118Z,0
2016-10-19T03:18:51.253Z,0
2016-10-19T03:19:51.265Z,0
2016-10-19T03:20:51.169Z,0
2016-10-19T03:21:51.190Z,0
2016-10-19T03:22:51.210Z,0
2016-10-19T03:23:51.228Z,0
2016-10-19T03:24:51.253Z,0
2016-10-19T03:25:51.577Z,0
2016-10-19T03:26:51.366Z,0
2016-10-19T03:27:51.364Z,0
2016-10-19T03:28:51.328Z,0
2016-10-19T03:29:51.381Z,0
2016-10-19T03:30:51.361Z,0
2016-10-19T03:31:51.380Z,0
2016-10-19T03:32:51.398Z,0
2016-10-19T03:33:51.423Z,0
2016-10-19T03:34:51.432Z,0
2016-10-19T03:35:51.447Z,0
2016-10-19T03:36:51.470Z,0
2016-10-19T03:37:51.494Z,0
2016-10-19T03:38:51.550Z,0
2016-10-19T03:39:51.840Z,0
2016-10-19T03:40:51.544Z,0
2016-10-19T03:41:51.565Z,0
2016-10-19T03:42:51.582Z,0
2016-10-19T03:43:51.622Z,0
2016-10-19T03:44:51.618Z,0
2016-10-19T03:45:51.633Z,0
2016-10-19T03:46:51.654Z,0
2016-10-19T03:47:51.670Z,0
2016-10-19T03:48:51.692Z,0
2016-10-19T03:49:51.712Z,0
2016-10-19T03:50:51.734Z,0
2016-10-19T03:51:51.749Z,0
2016-10-19T03:52:51.760Z,0
2016-10-19T03:53:51.785Z,0
2016-10-19T03:54:51.807Z,0
2016-10-19T03:55:51.820Z,0
2016-10-19T03:56:51.837Z,0
2016-10-19T03:57:51.858Z,0
2016-10-19T03:58:51.883Z,0
2016-10-19T03:59:52.361Z,0
2016-10-19T04:00:52.047Z,0
2016-10-19T04:01:52.139Z,0
2016-10-19T04:02:52.224Z,0
2016-10-19T04:03:52.101Z,0
2016-10-19T04:04:52.153Z,0
2016-10-19T04:05:52.199Z,0
2016-10-19T04:06:52.031Z,0
2016-10-19T04:07:52.044Z,0
2016-10-19T04:08:52.071Z,0
2016-10-19T04:09:52.077Z,0
2016-10-19T04:10:52.102Z,0
2016-10-19T04:11:52.120Z,0
2016-10-19T04:12:52.141Z,0
2016-10-19T04:13:52.158Z,0
2016-10-19T04:14:52.176Z,0
2016-10-19T04:15:52.190Z,0
2016-10-19T04:16:52.216Z,0
2016-10-19T04:17:52.234Z,0
2016-10-19T04:18:52.248Z,0
2016-10-19T04:19:52.271Z,0
2016-10-19T04:20:52.284Z,0
2016-10-19T04:21:52.418Z,0
2016-10-19T04:22:52.524Z,0
2016-10-19T04:23:52.451Z,0
2016-10-19T04:24:52.572Z,0
2016-10-19T04:25:52.582Z,0
2016-10-19T04:26:52.578Z,0
2016-10-19T04:27:52.628Z,0
2016-10-19T04:28:52.634Z,0
2016-10-19T04:29:52.740Z,0
2016-10-19T04:30:52.645Z,0
2016-10-19T04:31:52.650Z,0
2016-10-19T04:32:52.697Z,0
2016-10-19T04:33:52.671Z,0
2016-10-19T04:34:52.679Z,0
2016-10-19T04:35:52.679Z,0
2016-10-19T04:36:52.687Z,0
2016-10-19T04:37:52.766Z,0
2016-10-19T04:38:52.706Z,0
2016-10-19T04:39:52.773Z,0
2016-10-19T04:40:52.654Z,0
2016-10-19T04:41:52.672Z,0
2016-10-19T04:42:52.690Z,0
2016-10-19T04:43:52.708Z,0
2016-10-19T04:44:52.818Z,0
2016-10-19T04:45:52.782Z,0
2016-10-19T04:46:52.768Z,0
2016-10-19T04:47:52.780Z,0
2016-10-19T04:48:52.798Z,0
2016-10-19T04:49:52.931Z,0
2016-10-19T04:50:52.876Z,0
2016-10-19T04:51:52.857Z,0
2016-10-19T04:52:52.882Z,0
2016-10-19T04:53:52.892Z,0
2016-10-19T04:54:53.024Z,0
2016-10-19T04:55:53.248Z,0
2016-10-19T04:56:52.946Z,0
2016-10-19T04:57:53.159Z,0
2016-10-19T04:58:52.986Z,0
2016-10-19T04:59:53.150Z,0
2016-10-19T05:00:53.133Z,0
2016-10-19T05:01:53.229Z,0
2016-10-19T05:02:53.057Z,0
2016-10-19T05:03:53.193Z,0
2016-10-19T05:04:53.205Z,0
2016-10-19T05:05:53.113Z,0
2016-10-19T05:06:53.245Z,0
2016-10-19T05:07:53.171Z,0
2016-10-19T05:08:53.283Z,0
2016-10-19T05:09:53.331Z,0
2016-10-19T05:10:53.208Z,0
2016-10-19T05:11:53.220Z,0
2016-10-19T05:12:53.239Z,0
2016-10-19T05:13:53.261Z,0
2016-10-19T05:14:53.278Z,0
2016-10-19T05:15:53.307Z,0
2016-10-19T05:16:53.313Z,0
2016-10-19T05:17:53.327Z,0
2016-10-19T05:18:53.383Z,0
2016-10-19T05:19:53.367Z,0
2016-10-19T05:20:53.388Z,0
2016-10-19T05:21:53.407Z,0
2016-10-19T05:22:53.532Z,0
2016-10-19T05:23:53.550Z,0
2016-10-19T05:24:53.466Z,0
2016-10-19T05:25:53.511Z,4
2016-10-19T05:26:53.603Z,4
2016-10-19T05:27:53.513Z,0
2016-10-19T05:28:53.531Z,4
2016-10-19T05:29:53.557Z,4
2016-10-19T05:30:53.571Z,4
2016-10-19T05:31:53.583Z,4
2016-10-19T05:32:53.604Z,8
2016-10-19T05:33:53.624Z,8
2016-10-19T05:34:53.646Z,8
2016-10-19T05:35:53.659Z,12
2016-10-19T05:36:53.685Z,12
2016-10-19T05:37:53.697Z,16
2016-10-19T05:38:53.716Z,16
2016-10-19T05:39:53.778Z,20
2016-10-19T05:40:53.866Z,16
2016-10-19T05:41:53.956Z,24
2016-10-19T05:42:53.789Z,24
2016-10-19T05:43:53.859Z,28
2016-10-19T05:44:53.828Z,28
2016-10-19T05:45:53.843Z,32
2016-10-19T05:46:53.859Z,28
2016-10-19T05:47:53.882Z,32
2016-10-19T05:48:53.900Z,32
2016-10-19T05:49:53.920Z,32
2016-10-19T05:50:54.085Z,28
2016-10-19T05:51:53.949Z,28
2016-10-19T05:52:53.969Z,24
2016-10-19T05:53:54.122Z,36
2016-10-19T05:54:54.091Z,36
2016-10-19T05:55:54.123Z,40
2016-10-19T05:56:54.232Z,40
2016-10-19T05:57:54.149Z,44
2016-10-19T05:58:54.253Z,48
2016-10-19T05:59:54.245Z,56
2016-10-19T06:00:54.253Z,60
2016-10-19T06:01:54.264Z,64
2016-10-19T06:02:54.275Z,72
2016-10-19T06:03:54.269Z,76
2016-10-19T06:04:54.282Z,84
2016-10-19T06:05:54.288Z,88
2016-10-19T06:06:54.432Z,92
2016-10-19T06:07:54.440Z,100
2016-10-19T06:08:54.444Z,104
2016-10-19T06:09:54.353Z,112
2016-10-19T06:10:54.362Z,124
2016-10-19T06:11:54.413Z,140
2016-10-19T06:12:54.413Z,152
2016-10-19T06:13:54.421Z,164
2016-10-19T06:14:54.466Z,180
2016-10-19T06:15:54.465Z,200
2016-10-19T06:16:54.476Z,216
2016-10-19T06:17:54.469Z,232
2016-10-19T06:18:54.480Z,248
2016-10-19T06:19:54.488Z,256
2016-10-19T06:20:54.534Z,264
2016-10-19T06:21:54.504Z,276
2016-10-19T06:22:54.830Z,292
2016-10-19T06:23:54.531Z,276
2016-10-19T06:24:54.550Z,340
2016-10-19T06:25:54.567Z,396
2016-10-19T06:26:54.584Z,436
2016-10-19T06:27:54.608Z,480
2016-10-19T06:28:54.623Z,516
2016-10-19T06:29:54.643Z,532
2016-10-19T06:30:54.659Z,532
2016-10-19T06:31:54.994Z,532
2016-10-19T06:32:54.696Z,532
2016-10-19T06:33:54.896Z,532
2016-10-19T06:34:54.728Z,524
2016-10-19T06:35:54.755Z,516
2016-10-19T06:36:54.768Z,496
2016-10-19T06:37:54.785Z,472
2016-10-19T06:38:54.805Z,456
2016-10-19T06:39:54.825Z,452
2016-10-19T06:40:54.846Z,448
2016-10-19T06:41:54.862Z,448
2016-10-19T06:42:54.875Z,440
2016-10-19T06:43:54.893Z,424
2016-10-19T06:44:54.916Z,412
2016-10-19T06:45:54.927Z,408
2016-10-19T06:46:54.981Z,404
2016-10-19T06:47:54.970Z,408
2016-10-19T06:48:54.983Z,412
2016-10-19T06:49:54.999Z,412
2016-10-19T06:50:55.019Z,400
2016-10-19T06:51:55.041Z,396
2016-10-19T06:52:55.376Z,392
2016-10-19T06:53:55.072Z,392
2016-10-19T06:54:55.089Z,404
2016-10-19T06:55:55.110Z,416
2016-10-19T06:56:55.441Z,436
2016-10-19T06:57:55.151Z,440
2016-10-19T06:58:55.170Z,436
2016-10-19T06:59:55.181Z,424
2016-10-19T07:00:55.198Z,424
2016-10-19T07:01:55.225Z,420
2016-10-19T07:02:55.244Z,412
2016-10-19T07:03:55.252Z,404
2016-10-19T07:04:55.272Z,404
2016-10-19T07:05:55.297Z,408
2016-10-19T07:06:55.310Z,420
2016-10-19T07:07:55.322Z,432
2016-10-19T07:08:55.345Z,440
2016-10-19T07:09:55.366Z,456
2016-10-19T07:10:55.381Z,468
2016-10-19T07:11:55.402Z,484
2016-10-19T07:12:55.426Z,508
2016-10-19T07:13:55.436Z,520
2016-10-19T07:14:55.471Z,536
2016-10-19T07:15:55.477Z,532
2016-10-19T07:16:55.494Z,532
2016-10-19T07:17:55.508Z,528
2016-10-19T07:18:55.527Z,552
2016-10-19T07:19:55.548Z,584
2016-10-19T07:20:55.682Z,588
2016-10-19T07:21:55.811Z,564
2016-10-19T07:22:55.597Z,532
2016-10-19T07:23:55.617Z,512
2016-10-19T07:24:55.631Z,528
2016-10-19T07:25:55.654Z,528
2016-10-19T07:26:55.672Z,520
2016-10-19T07:27:55.693Z,492
2016-10-19T07:28:55.704Z,480
2016-10-19T07:29:55.742Z,472
2016-10-19T07:30:55.752Z,448
2016-10-19T07:31:55.766Z,392
2016-10-19T07:32:55.907Z,340
2016-10-19T07:33:55.800Z,288
2016-10-19T07:34:55.823Z,244
2016-10-19T07:35:55.838Z,220
2016-10-19T07:36:55.858Z,208
2016-10-19T07:37:55.874Z,196
2016-10-19T07:38:56.032Z,184
2016-10-19T07:39:55.911Z,176
2016-10-19T07:40:55.922Z,172
2016-10-19T07:41:55.946Z,172
2016-10-19T07:42:56.004Z,176
2016-10-19T07:43:55.980Z,176
2016-10-19T07:44:55.993Z,172
2016-10-19T07:45:56.024Z,176
2016-10-19T07:46:56.034Z,184
2016-10-19T07:47:56.164Z,184
2016-10-19T07:48:56.069Z,188
2016-10-19T07:49:56.207Z,192
2016-10-19T07:50:56.112Z,188
2016-10-19T07:51:56.267Z,192
2016-10-19T07:52:56.147Z,196
2016-10-19T07:53:56.281Z,200
2016-10-19T07:54:56.382Z,204
2016-10-19T07:55:56.200Z,208
2016-10-19T07:56:56.211Z,216
2016-10-19T07:57:56.370Z,224
2016-10-19T07:58:56.247Z,244
2016-10-19T07:59:56.378Z,260
2016-10-19T08:00:56.289Z,292
2016-10-19T08:01:56.306Z,312
2016-10-19T08:02:56.357Z,296
2016-10-19T08:03:56.335Z,308
2016-10-19T08:04:56.449Z,320
2016-10-19T08:05:56.378Z,324
2016-10-19T08:06:56.429Z,344
2016-10-19T08:07:56.419Z,348
2016-10-19T08:08:56.445Z,344
2016-10-19T08:09:56.452Z,352
2016-10-19T08:10:56.580Z,328
2016-10-19T08:11:56.542Z,312
2016-10-19T08:12:56.526Z,316
2016-10-19T08:13:56.515Z,320
2016-10-19T08:14:56.668Z,320
2016-10-19T08:15:56.663Z,344
2016-10-19T08:16:56.633Z,360
2016-10-19T08:17:56.753Z,364
2016-10-19T08:18:56.693Z,376
2016-10-19T08:19:56.656Z,392
2016-10-19T08:20:56.648Z,412
2016-10-19T08:21:56.768Z,448
2016-10-19T08:22:56.680Z,488
2016-10-19T08:23:56.731Z,556
2016-10-19T08:24:56.716Z,668
2016-10-19T08:25:57.068Z,732
2016-10-19T08:26:56.816Z,848
2016-10-19T08:27:56.766Z,940
2016-10-19T08:28:56.785Z,1028
2016-10-19T08:29:56.896Z,1076
2016-10-19T08:30:57.033Z,1148
2016-10-19T08:31:56.962Z,1156
2016-10-19T08:32:56.887Z,1228
2016-10-19T08:33:56.877Z,1216
2016-10-19T08:34:56.889Z,992
2016-10-19T08:35:57.033Z,1044
2016-10-19T08:36:56.926Z,1052
2016-10-19T08:37:56.960Z,1132
2016-10-19T08:38:57.077Z,1124
2016-10-19T08:39:56.983Z,996
2016-10-19T08:40:57.006Z,1084
2016-10-19T08:41:57.018Z,1044
2016-10-19T08:42:57.033Z,1084
2016-10-19T08:43:57.060Z,1128
2016-10-19T08:44:57.074Z,1248
2016-10-19T08:45:57.096Z,1284
2016-10-19T08:46:57.106Z,1276
2016-10-19T08:47:57.454Z,1252
2016-10-19T08:48:57.154Z,1204
2016-10-19T08:49:57.166Z,1164
2016-10-19T08:50:57.184Z,1116
2016-10-19T08:51:57.197Z,1072
2016-10-19T08:52:57.217Z,1012
2016-10-19T08:53:57.237Z,980
2016-10-19T08:54:57.402Z,964
2016-10-19T08:55:57.277Z,948
2016-10-19T08:56:57.410Z,900
2016-10-19T08:57:57.342Z,828
2016-10-19T08:58:57.327Z,748
2016-10-19T08:59:57.342Z,656
2016-10-19T09:00:57.406Z,564
2016-10-19T09:01:57.382Z,516
2016-10-19T09:02:57.419Z,512
2016-10-19T09:03:57.416Z,576
2016-10-19T09:04:57.434Z,648
2016-10-19T09:05:57.466Z,776
2016-10-19T09:06:57.472Z,820
2016-10-19T09:07:57.491Z,860
2016-10-19T09:08:57.515Z,1016
2016-10-19T09:09:57.530Z,1112
2016-10-19T09:10:57.540Z,1136
2016-10-19T09:11:57.567Z,1220
2016-10-19T09:12:57.575Z,1216
2016-10-19T09:13:57.600Z,1132
2016-10-19T09:14:57.732Z,1304
2016-10-19T09:15:57.720Z,1248
2016-10-19T09:16:57.772Z,1064
2016-10-19T09:17:57.678Z,836
2016-10-19T09:18:57.689Z,636
2016-10-19T09:19:57.825Z,1028
2016-10-19T09:20:57.839Z,1164
2016-10-19T09:21:57.741Z,1136
2016-10-19T09:22:57.761Z,952
2016-10-19T09:23:57.887Z,796
2016-10-19T09:24:57.798Z,544
2016-10-19T09:25:57.822Z,576
2016-10-19T09:26:58.266Z,552
2016-10-19T09:27:57.851Z,908
2016-10-19T09:28:57.980Z,1076
2016-10-19T09:29:58.002Z,1236
2016-10-19T09:30:57.906Z,1448
2016-10-19T09:31:57.928Z,2068
2016-10-19T09:32:57.946Z,2136
2016-10-19T09:33:57.959Z,1568
2016-10-19T09:34:57.982Z,1428
2016-10-19T09:35:58.062Z,1584
2016-10-19T09:36:58.464Z,1652
2016-10-19T09:37:58.038Z,964
2016-10-19T09:38:58.054Z,744
2016-10-19T09:39:58.070Z,860
2016-10-19T09:40:58.097Z,812
2016-10-19T09:41:58.111Z,1088
2016-10-19T09:42:58.136Z,1104
2016-10-19T09:43:58.145Z,1200
2016-10-19T09:44:58.207Z,1384
2016-10-19T09:45:58.319Z,1272
2016-10-19T09:46:58.204Z,1128
2016-10-19T09:47:58.333Z,1044
2016-10-19T09:48:58.240Z,768
2016-10-19T09:49:58.260Z,568
2016-10-19T09:50:58.277Z,516
2016-10-19T09:51:58.404Z,532
2016-10-19T09:52:58.386Z,504
2016-10-19T09:53:58.331Z,344
2016-10-19T09:54:58.432Z,308
2016-10-19T09:55:58.373Z,276
2016-10-19T09:56:58.502Z,304
2016-10-19T09:57:58.500Z,296
2016-10-19T09:58:58.424Z,232
2016-10-19T09:59:58.443Z,316
2016-10-19T10:00:58.460Z,436
2016-10-19T10:01:58.481Z,644
2016-10-19T10:02:58.510Z,540
2016-10-19T10:03:58.568Z,316
2016-10-19T10:04:58.533Z,368
2016-10-19T10:05:58.559Z,316
2016-10-19T10:06:58.577Z,204
2016-10-19T10:07:58.633Z,416
2016-10-19T10:08:58.614Z,688
2016-10-19T10:09:58.632Z,864
2016-10-19T10:10:58.661Z,916
2016-10-19T10:11:58.678Z,1052
2016-10-19T10:12:58.772Z,1196
2016-10-19T10:13:58.770Z,1000
2016-10-19T10:14:58.866Z,720
2016-10-19T10:15:58.886Z,920
2016-10-19T10:16:58.762Z,988
2016-10-19T10:17:58.897Z,788
2016-10-19T10:18:58.870Z,692
2016-10-19T10:19:58.815Z,868
2016-10-19T10:20:58.882Z,824
2016-10-19T10:21:58.852Z,728
2016-10-19T10:22:58.920Z,784
2016-10-19T10:23:58.928Z,828
2016-10-19T10:24:58.912Z,812
2016-10-19T10:25:59.239Z,848
2016-10-19T10:26:58.958Z,708
2016-10-19T10:27:59.165Z,528
2016-10-19T10:28:59.305Z,660
2016-10-19T10:29:59.038Z,832
2016-10-19T10:30:59.107Z,1000
2016-10-19T10:31:59.041Z,1072
2016-10-19T10:32:59.056Z,988
2016-10-19T10:33:59.084Z,964
2016-10-19T10:34:59.112Z,1288
2016-10-19T10:35:59.116Z,1532
2016-10-19T10:36:59.249Z,1948
2016-10-19T10:37:59.194Z,2420
2016-10-19T10:38:59.168Z,2364
2016-10-19T10:39:59.187Z,1524
2016-10-19T10:40:59.217Z,1320
2016-10-19T10:41:59.225Z,1504
2016-10-19T10:42:59.251Z,1468
2016-10-19T10:43:59.268Z,1596
2016-10-19T10:44:59.282Z,1792
2016-10-19T10:45:59.354Z,1888
2016-10-19T10:46:59.364Z,1960
2016-10-19T10:47:59.346Z,2124
2016-10-19T10:48:59.442Z,1932
2016-10-19T10:49:59.377Z,1620
2016-10-19T10:50:59.398Z,1408
2016-10-19T10:51:59.414Z,1364
2016-10-19T10:52:59.437Z,1324
2016-10-19T10:53:59.454Z,1536
2016-10-19T10:54:59.476Z,1572
2016-10-19T10:55:59.498Z,1612
2016-10-19T10:56:59.504Z,1560
2016-10-19T10:57:59.532Z,1556
2016-10-19T10:58:59.549Z,1432
2016-10-19T10:59:59.685Z,1384
2016-10-19T11:00:59.699Z,1352
2016-10-19T11:01:59.844Z,1308
2016-10-19T11:02:59.707Z,1224
2016-10-19T11:03:59.753Z,1124
2016-10-19T11:04:59.888Z,1044
2016-10-19T11:05:59.901Z,1004
2016-10-19T11:06:59.907Z,1020
2016-10-19T11:07:59.922Z,1252
2016-10-19T11:08:59.921Z,1212
2016-10-19T11:09:59.885Z,1148
2016-10-19T11:10:59.970Z,1356
2016-10-19T11:11:59.982Z,1468
2016-10-19T11:12:59.817Z,1288
2016-10-19T11:13:59.839Z,980
2016-10-19T11:14:59.855Z,916
2016-10-19T11:15:59.874Z,1008
2016-10-19T11:16:59.894Z,1240
2016-10-19T11:17:59.917Z,1216
2016-10-19T11:18:59.932Z,1540
2016-10-19T11:19:59.948Z,1488
2016-10-19T11:20:59.971Z,1252
2016-10-19T11:21:59.994Z,1204
2016-10-19T11:23:00.006Z,1172
2016-10-19T11:24:00.345Z,1216
2016-10-19T11:25:00.046Z,824
2016-10-19T11:26:00.073Z,508
2016-10-19T11:27:00.089Z,456
2016-10-19T11:28:00.102Z,704
2016-10-19T11:29:00.124Z,668
2016-10-19T11:30:00.187Z,660
2016-10-19T11:31:00.164Z,648
2016-10-19T11:32:00.181Z,652
2016-10-19T11:33:00.210Z,620
2016-10-19T11:34:00.223Z,600
2016-10-19T11:35:00.242Z,576
2016-10-19T11:36:00.273Z,584
2016-10-19T11:37:00.319Z,604
2016-10-19T11:38:00.299Z,608
2016-10-19T11:39:00.321Z,636
2016-10-19T11:40:00.341Z,756
2016-10-19T11:41:00.363Z,632
2016-10-19T11:42:00.385Z,624
2016-10-19T11:43:00.400Z,624
2016-10-19T11:44:00.416Z,596
2016-10-19T11:45:00.433Z,652
2016-10-19T11:46:00.495Z,580
2016-10-19T11:47:00.482Z,580
2016-10-19T11:48:00.497Z,572
2016-10-19T11:49:00.629Z,564
2016-10-19T11:50:00.645Z,560
2016-10-19T11:51:00.648Z,552
2016-10-19T11:52:00.668Z,528
2016-10-19T11:53:00.690Z,548
2016-10-19T11:54:00.849Z,564
2016-10-19T11:55:00.850Z,568
2016-10-19T11:56:00.861Z,568
2016-10-19T11:57:00.875Z,568
2016-10-19T11:58:00.875Z,576
2016-10-19T11:59:00.919Z,584
2016-10-19T12:00:00.933Z,604
2016-10-19T12:01:00.937Z,632
2016-10-19T12:02:00.939Z,660
2016-10-19T12:03:00.946Z,700
2016-10-19T12:04:00.957Z,744
2016-10-19T12:05:00.979Z,692
2016-10-19T12:06:00.970Z,812
2016-10-19T12:07:00.974Z,820
2016-10-19T12:08:00.990Z,812
2016-10-19T12:09:00.988Z,780
2016-10-19T12:10:01.059Z,760
2016-10-19T12:11:01.055Z,756
2016-10-19T12:12:00.973Z,808
2016-10-19T12:13:00.995Z,764
2016-10-19T12:14:01.004Z,620
2016-10-19T12:15:01.022Z,568
2016-10-19T12:16:01.091Z,508
2016-10-19T12:17:01.088Z,532
2016-10-19T12:18:01.089Z,600
2016-10-19T12:19:01.146Z,604
2016-10-19T12:20:01.126Z,660
2016-10-19T12:21:01.152Z,860
2016-10-19T12:22:01.215Z,572
2016-10-19T12:23:01.188Z,548
2016-10-19T12:24:01.222Z,540
2016-10-19T12:25:01.229Z,532
2016-10-19T12:26:01.248Z,568
2016-10-19T12:27:01.270Z,736
2016-10-19T12:28:01.596Z,976
2016-10-19T12:29:01.303Z,972
2016-10-19T12:30:01.364Z,896
2016-10-19T12:31:01.345Z,1048
2016-10-19T12:32:01.361Z,1392
2016-10-19T12:33:01.385Z,1296
2016-10-19T12:34:01.405Z,732
2016-10-19T12:35:01.431Z,1124
2016-10-19T12:36:01.447Z,1408
2016-10-19T12:37:01.465Z,1076
2016-10-19T12:38:01.504Z,652
2016-10-19T12:39:01.510Z,624
2016-10-19T12:40:01.529Z,628
2016-10-19T12:41:01.553Z,640
2016-10-19T12:42:01.563Z,812
2016-10-19T12:43:01.592Z,936
2016-10-19T12:44:01.608Z,1032
2016-10-19T12:45:01.627Z,1164
2016-10-19T12:46:01.649Z,1372
2016-10-19T12:47:01.673Z,1204
2016-10-19T12:48:01.692Z,1216
2016-10-19T12:49:01.709Z,1440
2016-10-19T12:50:01.735Z,1212
2016-10-19T12:51:01.751Z,1052
2016-10-19T12:52:01.772Z,1188
2016-10-19T12:53:01.797Z,1444
2016-10-19T12:54:01.809Z,1088
2016-10-19T12:55:01.831Z,936
2016-10-19T12:56:02.027Z,1312
2016-10-19T12:57:01.873Z,1904
2016-10-19T12:58:01.899Z,1720
2016-10-19T12:59:01.919Z,1588
2016-10-19T13:00:01.934Z,1664
2016-10-19T13:01:01.963Z,1564
2016-10-19T13:02:01.979Z,1408
2016-10-19T13:03:01.996Z,1652
2016-10-19T13:04:02.023Z,1840
2016-10-19T13:05:02.040Z,1572
2016-10-19T13:06:02.060Z,1280
2016-10-19T13:07:02.086Z,1432
2016-10-19T13:08:02.112Z,1672
2016-10-19T13:09:02.133Z,1004
2016-10-19T13:10:02.142Z,656
2016-10-19T13:11:02.162Z,496
2016-10-19T13:12:02.188Z,544
2016-10-19T13:13:02.206Z,520
2016-10-19T13:14:02.231Z,564
2016-10-19T13:15:02.247Z,636
2016-10-19T13:16:02.270Z,712
2016-10-19T13:17:02.286Z,904
2016-10-19T13:18:02.305Z,1060
2016-10-19T13:19:02.334Z,1272
2016-10-19T13:20:02.352Z,1456
2016-10-19T13:21:02.691Z,1476
2016-10-19T13:22:02.443Z,1464
2016-10-19T13:23:02.420Z,1340
2016-10-19T13:24:02.431Z,1276
2016-10-19T13:25:02.451Z,1428
2016-10-19T13:26:02.477Z,1556
2016-10-19T13:27:02.493Z,1436
2016-10-19T13:28:02.525Z,1460
2016-10-19T13:29:02.537Z,1420
2016-10-19T13:30:02.670Z,1264
2016-10-19T13:31:02.695Z,1072
2016-10-19T13:32:02.835Z,824
2016-10-19T13:33:02.824Z,600
2016-10-19T13:34:02.878Z,680
2016-10-19T13:35:02.880Z,764
2016-10-19T13:36:02.897Z,848
2016-10-19T13:37:02.930Z,844
2016-10-19T13:38:03.034Z,676
2016-10-19T13:39:02.912Z,416
2016-10-19T13:40:02.767Z,364
2016-10-19T13:41:02.788Z,416
2016-10-19T13:42:03.135Z,396
2016-10-19T13:43:02.877Z,392
2016-10-19T13:44:02.869Z,364
2016-10-19T13:45:02.867Z,388
2016-10-19T13:46:02.895Z,636
2016-10-19T13:47:03.224Z,816
2016-10-19T13:48:02.947Z,696
2016-10-19T13:49:02.947Z,976
2016-10-19T13:50:02.983Z,920
2016-10-19T13:51:03.000Z,812
2016-10-19T13:52:03.019Z,788
2016-10-19T13:53:03.749Z,764
2016-10-19T13:54:03.056Z,600
2016-10-19T13:55:03.078Z,480
2016-10-19T13:56:03.107Z,500
2016-10-19T13:57:03.117Z,512
2016-10-19T13:58:03.145Z,544
2016-10-19T13:59:03.165Z,444
2016-10-19T14:00:03.671Z,528
2016-10-19T14:01:03.544Z,492
2016-10-19T14:02:03.571Z,424
2016-10-19T14:03:03.244Z,520
2016-10-19T14:04:03.268Z,640
2016-10-19T14:05:03.285Z,572
2016-10-19T14:06:03.353Z,552